sensor_id;sensor_type;location;lat;lon;timestamp;P1;durP1;ratioP1;P2;durP2;ratioP2
77146;SDS011;66121;52.584;9.694;2023-01-05T00:00:52;13.57;;;2.70;;
77146;SDS011;66121;52.584;9.694;2023-01-05T00:03:19;19.38;;;3.78;;
77146;SDS011;66121;52.584;9.694;2023-01-05T00:05:44;19.63;;;3.33;;
77146;SDS011;66121;52.584;9.694;2023-01-05T00:08:10;13.90;;;3.27;;
77146;SDS011;66121;52.584;9.694;2023-01-05T00:10:36;18.70;;;3.20;;
77146;SDS011;66121;52.584;9.694;2023-01-05T00:13:20;12.73;;;2.85;;
77146;SDS011;66121;52.584;9.694;2023-01-05T00:16:08;16.73;;;3.10;;
77146;SDS011;66121;52.584;9.694;2023-01-05T00:18:55;16.30;;;3.20;;
77146;SDS011;66121;52.584;9.694;2023-01-05T00:21:39;15.75;;;3.88;;
77146;SDS011;66121;52.584;9.694;2023-01-05T00:24:23;14.55;;;3.22;;
77146;SDS011;66121;52.584;9.694;2023-01-05T00:26:48;21.30;;;4.37;;
77146;SDS011;66121;52.584;9.694;2023-01-05T00:29:13;18.63;;;3.67;;
77146;SDS011;66121;52.584;9.694;2023-01-05T00:31:39;12.10;;;2.97;;
77146;SDS011;66121;52.584;9.694;2023-01-05T00:34:04;15.20;;;3.63;;
77146;SDS011;66121;52.584;9.694;2023-01-05T00:36:29;10.77;;;3.37;;
77146;SDS011;66121;52.584;9.694;2023-01-05T00:38:54;16.27;;;3.27;;
77146;SDS011;66121;52.584;9.694;2023-01-05T00:41:20;17.03;;;3.43;;
77146;SDS011;66121;52.584;9.694;2023-01-05T00:43:45;17.17;;;3.77;;
77146;SDS011;66121;52.584;9.694;2023-01-05T00:46:10;11.47;;;4.00;;
77146;SDS011;66121;52.584;9.694;2023-01-05T00:48:35;14.93;;;3.00;;
77146;SDS011;66121;52.584;9.694;2023-01-05T00:51:01;18.60;;;4.07;;
77146;SDS011;66121;52.584;9.694;2023-01-05T00:53:26;14.87;;;4.17;;
77146;SDS011;66121;52.584;9.694;2023-01-05T00:55:58;12.33;;;3.50;;
77146;SDS011;66121;52.584;9.694;2023-01-05T00:58:23;17.30;;;3.35;;
77146;SDS011;66121;52.584;9.694;2023-01-05T01:00:48;16.58;;;3.50;;
77146;SDS011;66121;52.584;9.694;2023-01-05T01:03:14;13.23;;;3.08;;
77146;SDS011;66121;52.584;9.694;2023-01-05T01:05:39;17.80;;;3.90;;
77146;SDS011;66121;52.584;9.694;2023-01-05T01:08:04;16.38;;;3.42;;
77146;SDS011;66121;52.584;9.694;2023-01-05T01:10:30;11.43;;;3.58;;
77146;SDS011;66121;52.584;9.694;2023-01-05T01:12:55;12.70;;;2.93;;
77146;SDS011;66121;52.584;9.694;2023-01-05T01:15:20;20.30;;;3.23;;
77146;SDS011;66121;52.584;9.694;2023-01-05T01:17:45;15.45;;;3.28;;
77146;SDS011;66121;52.584;9.694;2023-01-05T01:20:11;11.93;;;4.07;;
77146;SDS011;66121;52.584;9.694;2023-01-05T01:22:36;15.00;;;3.27;;
77146;SDS011;66121;52.584;9.694;2023-01-05T01:25:02;14.07;;;2.85;;
77146;SDS011;66121;52.584;9.694;2023-01-05T01:27:28;16.48;;;4.00;;
77146;SDS011;66121;52.584;9.694;2023-01-05T01:29:54;11.50;;;3.38;;
77146;SDS011;66121;52.584;9.694;2023-01-05T01:32:20;12.33;;;3.90;;
77146;SDS011;66121;52.584;9.694;2023-01-05T01:34:45;13.15;;;3.45;;
77146;SDS011;66121;52.584;9.694;2023-01-05T01:37:11;12.55;;;3.10;;
77146;SDS011;66121;52.584;9.694;2023-01-05T01:39:36;13.18;;;3.50;;
77146;SDS011;66121;52.584;9.694;2023-01-05T01:42:02;15.47;;;3.03;;
77146;SDS011;66121;52.584;9.694;2023-01-05T01:47:13;13.25;;;3.88;;
77146;SDS011;66121;52.584;9.694;2023-01-05T01:49:45;14.43;;;3.60;;
77146;SDS011;66121;52.584;9.694;2023-01-05T01:52:12;11.95;;;3.28;;
77146;SDS011;66121;52.584;9.694;2023-01-05T01:54:37;14.18;;;3.60;;
77146;SDS011;66121;52.584;9.694;2023-01-05T01:57:03;12.98;;;4.30;;
77146;SDS011;66121;52.584;9.694;2023-01-05T01:59:28;19.98;;;4.53;;
77146;SDS011;66121;52.584;9.694;2023-01-05T02:01:55;24.05;;;4.10;;
77146;SDS011;66121;52.584;9.694;2023-01-05T02:04:24;16.77;;;3.42;;
77146;SDS011;66121;52.584;9.694;2023-01-05T02:06:51;13.38;;;3.10;;
77146;SDS011;66121;52.584;9.694;2023-01-05T02:09:17;10.60;;;3.10;;
77146;SDS011;66121;52.584;9.694;2023-01-05T02:11:53;16.25;;;3.65;;
77146;SDS011;66121;52.584;9.694;2023-01-05T02:14:32;13.25;;;3.45;;
77146;SDS011;66121;52.584;9.694;2023-01-05T02:28:06;11.68;;;2.72;;
77146;SDS011;66121;52.584;9.694;2023-01-05T02:39:19;8.43;;;2.83;;
77146;SDS011;66121;52.584;9.694;2023-01-05T02:42:00;13.77;;;2.70;;
77146;SDS011;66121;52.584;9.694;2023-01-05T02:44:29;12.60;;;2.75;;
77146;SDS011;66121;52.584;9.694;2023-01-05T02:47:04;7.50;;;2.50;;
77146;SDS011;66121;52.584;9.694;2023-01-05T02:49:55;9.70;;;2.22;;
77146;SDS011;66121;52.584;9.694;2023-01-05T02:52:24;5.13;;;2.20;;
77146;SDS011;66121;52.584;9.694;2023-01-05T02:55:01;13.10;;;2.90;;
77146;SDS011;66121;52.584;9.694;2023-01-05T02:57:31;11.90;;;3.08;;
77146;SDS011;66121;52.584;9.694;2023-01-05T03:00:31;6.07;;;2.05;;
77146;SDS011;66121;52.584;9.694;2023-01-05T03:03:01;11.43;;;2.40;;
77146;SDS011;66121;52.584;9.694;2023-01-05T03:05:33;10.38;;;2.63;;
77146;SDS011;66121;52.584;9.694;2023-01-05T03:08:03;6.60;;;2.20;;
77146;SDS011;66121;52.584;9.694;2023-01-05T03:10:46;15.90;;;3.33;;
77146;SDS011;66121;52.584;9.694;2023-01-05T03:13:45;7.43;;;2.40;;
77146;SDS011;66121;52.584;9.694;2023-01-05T03:16:16;7.28;;;3.25;;
77146;SDS011;66121;52.584;9.694;2023-01-05T03:18:46;9.75;;;2.88;;
77146;SDS011;66121;52.584;9.694;2023-01-05T03:21:31;12.48;;;2.70;;
77146;SDS011;66121;52.584;9.694;2023-01-05T03:24:15;10.50;;;2.63;;
77146;SDS011;66121;52.584;9.694;2023-01-05T03:26:59;14.00;;;3.28;;
77146;SDS011;66121;52.584;9.694;2023-01-05T03:29:44;16.42;;;2.97;;
77146;SDS011;66121;52.584;9.694;2023-01-05T03:32:28;14.57;;;2.90;;
77146;SDS011;66121;52.584;9.694;2023-01-05T03:35:19;11.13;;;2.78;;
77146;SDS011;66121;52.584;9.694;2023-01-05T03:40:56;17.67;;;3.33;;
77146;SDS011;66121;52.584;9.694;2023-01-05T03:43:24;13.18;;;4.30;;
77146;SDS011;66121;52.584;9.694;2023-01-05T03:45:55;13.25;;;3.83;;
77146;SDS011;66121;52.584;9.694;2023-01-05T03:48:21;13.85;;;3.88;;
77146;SDS011;66121;52.584;9.694;2023-01-05T03:50:48;18.88;;;3.80;;
77146;SDS011;66121;52.584;9.694;2023-01-05T03:53:14;18.42;;;3.70;;
77146;SDS011;66121;52.584;9.694;2023-01-05T03:55:39;13.05;;;3.47;;
77146;SDS011;66121;52.584;9.694;2023-01-05T03:58:04;9.90;;;3.20;;
77146;SDS011;66121;52.584;9.694;2023-01-05T04:00:30;11.40;;;3.22;;
77146;SDS011;66121;52.584;9.694;2023-01-05T04:02:56;12.70;;;3.20;;
77146;SDS011;66121;52.584;9.694;2023-01-05T04:05:22;13.68;;;2.90;;
77146;SDS011;66121;52.584;9.694;2023-01-05T04:07:47;18.33;;;3.07;;
77146;SDS011;66121;52.584;9.694;2023-01-05T04:10:13;11.98;;;3.10;;
77146;SDS011;66121;52.584;9.694;2023-01-05T04:12:38;16.58;;;2.95;;
77146;SDS011;66121;52.584;9.694;2023-01-05T04:15:03;11.13;;;4.40;;
77146;SDS011;66121;52.584;9.694;2023-01-05T04:17:29;16.95;;;3.17;;
77146;SDS011;66121;52.584;9.694;2023-01-05T04:19:54;13.43;;;3.60;;
77146;SDS011;66121;52.584;9.694;2023-01-05T04:22:20;12.57;;;3.07;;
77146;SDS011;66121;52.584;9.694;2023-01-05T04:24:45;16.95;;;4.47;;
77146;SDS011;66121;52.584;9.694;2023-01-05T04:27:10;13.10;;;3.33;;
77146;SDS011;66121;52.584;9.694;2023-01-05T04:29:36;12.70;;;3.40;;
77146;SDS011;66121;52.584;9.694;2023-01-05T04:32:01;18.57;;;3.37;;
77146;SDS011;66121;52.584;9.694;2023-01-05T04:34:26;14.50;;;3.30;;
77146;SDS011;66121;52.584;9.694;2023-01-05T04:36:52;11.17;;;2.97;;
77146;SDS011;66121;52.584;9.694;2023-01-05T04:39:17;17.10;;;3.23;;
77146;SDS011;66121;52.584;9.694;2023-01-05T04:41:42;13.77;;;3.43;;
77146;SDS011;66121;52.584;9.694;2023-01-05T04:44:07;7.50;;;3.05;;
77146;SDS011;66121;52.584;9.694;2023-01-05T04:46:33;11.32;;;2.83;;
77146;SDS011;66121;52.584;9.694;2023-01-05T04:48:58;20.50;;;3.77;;
77146;SDS011;66121;52.584;9.694;2023-01-05T04:51:24;17.23;;;3.80;;
77146;SDS011;66121;52.584;9.694;2023-01-05T04:53:49;15.32;;;3.40;;
77146;SDS011;66121;52.584;9.694;2023-01-05T04:56:14;15.23;;;3.70;;
77146;SDS011;66121;52.584;9.694;2023-01-05T04:58:41;11.57;;;3.45;;
77146;SDS011;66121;52.584;9.694;2023-01-05T05:01:06;15.02;;;3.55;;
77146;SDS011;66121;52.584;9.694;2023-01-05T05:03:32;17.75;;;3.92;;
77146;SDS011;66121;52.584;9.694;2023-01-05T05:05:58;19.58;;;3.83;;
77146;SDS011;66121;52.584;9.694;2023-01-05T05:08:23;11.82;;;3.58;;
77146;SDS011;66121;52.584;9.694;2023-01-05T05:10:49;17.47;;;4.13;;
77146;SDS011;66121;52.584;9.694;2023-01-05T05:13:14;16.02;;;3.53;;
77146;SDS011;66121;52.584;9.694;2023-01-05T05:15:39;15.47;;;3.70;;
77146;SDS011;66121;52.584;9.694;2023-01-05T05:18:05;13.87;;;3.83;;
77146;SDS011;66121;52.584;9.694;2023-01-05T05:20:30;10.33;;;4.03;;
77146;SDS011;66121;52.584;9.694;2023-01-05T05:22:55;10.43;;;3.45;;
77146;SDS011;66121;52.584;9.694;2023-01-05T05:25:21;19.60;;;4.10;;
77146;SDS011;66121;52.584;9.694;2023-01-05T05:27:46;21.23;;;3.90;;
77146;SDS011;66121;52.584;9.694;2023-01-05T05:30:11;18.35;;;3.65;;
77146;SDS011;66121;52.584;9.694;2023-01-05T05:32:37;11.30;;;3.70;;
77146;SDS011;66121;52.584;9.694;2023-01-05T05:35:03;18.00;;;3.90;;
77146;SDS011;66121;52.584;9.694;2023-01-05T05:37:28;17.10;;;3.90;;
77146;SDS011;66121;52.584;9.694;2023-01-05T05:39:53;13.53;;;3.30;;
77146;SDS011;66121;52.584;9.694;2023-01-05T05:42:19;14.77;;;3.78;;
77146;SDS011;66121;52.584;9.694;2023-01-05T05:44:44;14.37;;;4.00;;
77146;SDS011;66121;52.584;9.694;2023-01-05T05:47:09;10.80;;;4.03;;
77146;SDS011;66121;52.584;9.694;2023-01-05T05:49:34;12.53;;;3.90;;
77146;SDS011;66121;52.584;9.694;2023-01-05T05:52:00;16.43;;;4.33;;
77146;SDS011;66121;52.584;9.694;2023-01-05T05:54:25;16.43;;;4.27;;
77146;SDS011;66121;52.584;9.694;2023-01-05T05:56:50;16.73;;;4.63;;
77146;SDS011;66121;52.584;9.694;2023-01-05T05:59:16;17.88;;;5.22;;
77146;SDS011;66121;52.584;9.694;2023-01-05T06:01:41;11.33;;;4.47;;
77146;SDS011;66121;52.584;9.694;2023-01-05T06:04:06;21.50;;;6.23;;
77146;SDS011;66121;52.584;9.694;2023-01-05T06:06:32;15.88;;;3.78;;
77146;SDS011;66121;52.584;9.694;2023-01-05T06:08:57;16.92;;;5.20;;
77146;SDS011;66121;52.584;9.694;2023-01-05T06:11:22;19.53;;;4.70;;
77146;SDS011;66121;52.584;9.694;2023-01-05T06:13:47;14.17;;;4.03;;
77146;SDS011;66121;52.584;9.694;2023-01-05T06:16:13;14.90;;;4.10;;
77146;SDS011;66121;52.584;9.694;2023-01-05T06:18:39;18.38;;;5.65;;
77146;SDS011;66121;52.584;9.694;2023-01-05T06:21:04;13.93;;;4.90;;
77146;SDS011;66121;52.584;9.694;2023-01-05T06:23:29;15.30;;;3.97;;
77146;SDS011;66121;52.584;9.694;2023-01-05T06:25:55;13.00;;;3.70;;
77146;SDS011;66121;52.584;9.694;2023-01-05T06:28:20;9.70;;;3.57;;
77146;SDS011;66121;52.584;9.694;2023-01-05T06:30:45;16.65;;;4.03;;
77146;SDS011;66121;52.584;9.694;2023-01-05T06:33:11;19.30;;;3.53;;
77146;SDS011;66121;52.584;9.694;2023-01-05T06:35:36;9.32;;;3.03;;
77146;SDS011;66121;52.584;9.694;2023-01-05T06:38:02;12.90;;;2.97;;
77146;SDS011;66121;52.584;9.694;2023-01-05T06:40:27;12.75;;;3.17;;
77146;SDS011;66121;52.584;9.694;2023-01-05T06:42:52;10.80;;;3.17;;
77146;SDS011;66121;52.584;9.694;2023-01-05T06:45:18;13.15;;;3.70;;
77146;SDS011;66121;52.584;9.694;2023-01-05T06:47:43;10.00;;;3.22;;
77146;SDS011;66121;52.584;9.694;2023-01-05T06:50:09;15.27;;;3.70;;
77146;SDS011;66121;52.584;9.694;2023-01-05T06:52:35;14.73;;;3.33;;
77146;SDS011;66121;52.584;9.694;2023-01-05T06:55:04;10.68;;;2.83;;
77146;SDS011;66121;52.584;9.694;2023-01-05T06:57:36;10.77;;;3.30;;
77146;SDS011;66121;52.584;9.694;2023-01-05T07:00:03;14.77;;;3.30;;
77146;SDS011;66121;52.584;9.694;2023-01-05T07:02:30;14.73;;;3.70;;
77146;SDS011;66121;52.584;9.694;2023-01-05T07:04:55;10.13;;;3.83;;
77146;SDS011;66121;52.584;9.694;2023-01-05T07:07:21;16.43;;;6.67;;
77146;SDS011;66121;52.584;9.694;2023-01-05T07:09:46;15.90;;;3.13;;
77146;SDS011;66121;52.584;9.694;2023-01-05T07:12:13;18.75;;;3.80;;
77146;SDS011;66121;52.584;9.694;2023-01-05T07:14:38;14.63;;;3.97;;
77146;SDS011;66121;52.584;9.694;2023-01-05T07:17:04;13.97;;;3.40;;
77146;SDS011;66121;52.584;9.694;2023-01-05T07:19:29;12.13;;;4.07;;
77146;SDS011;66121;52.584;9.694;2023-01-05T07:21:54;10.57;;;4.10;;
77146;SDS011;66121;52.584;9.694;2023-01-05T07:24:21;14.65;;;3.83;;
77146;SDS011;66121;52.584;9.694;2023-01-05T07:26:46;23.80;;;4.30;;
77146;SDS011;66121;52.584;9.694;2023-01-05T07:29:11;13.02;;;4.10;;
77146;SDS011;66121;52.584;9.694;2023-01-05T07:31:37;20.08;;;5.13;;
77146;SDS011;66121;52.584;9.694;2023-01-05T07:34:02;16.63;;;4.63;;
77146;SDS011;66121;52.584;9.694;2023-01-05T07:36:27;15.27;;;3.80;;
77146;SDS011;66121;52.584;9.694;2023-01-05T07:38:53;10.33;;;3.30;;
77146;SDS011;66121;52.584;9.694;2023-01-05T07:41:18;17.13;;;4.77;;
77146;SDS011;66121;52.584;9.694;2023-01-05T07:43:43;14.05;;;4.03;;
77146;SDS011;66121;52.584;9.694;2023-01-05T07:46:12;12.70;;;4.90;;
77146;SDS011;66121;52.584;9.694;2023-01-05T07:48:39;13.18;;;4.43;;
77146;SDS011;66121;52.584;9.694;2023-01-05T07:51:05;11.25;;;3.70;;
77146;SDS011;66121;52.584;9.694;2023-01-05T07:53:32;22.00;;;4.53;;
77146;SDS011;66121;52.584;9.694;2023-01-05T07:55:59;18.20;;;4.53;;
77146;SDS011;66121;52.584;9.694;2023-01-05T07:58:26;19.20;;;4.60;;
77146;SDS011;66121;52.584;9.694;2023-01-05T08:00:52;17.48;;;4.50;;
77146;SDS011;66121;52.584;9.694;2023-01-05T08:03:17;17.80;;;4.05;;
77146;SDS011;66121;52.584;9.694;2023-01-05T08:05:43;16.60;;;3.58;;
77146;SDS011;66121;52.584;9.694;2023-01-05T08:08:08;12.13;;;3.78;;
77146;SDS011;66121;52.584;9.694;2023-01-05T08:10:34;15.27;;;4.20;;
77146;SDS011;66121;52.584;9.694;2023-01-05T08:13:05;11.15;;;3.92;;
77146;SDS011;66121;52.584;9.694;2023-01-05T08:15:50;14.15;;;3.47;;
77146;SDS011;66121;52.584;9.694;2023-01-05T08:18:16;12.50;;;3.88;;
77146;SDS011;66121;52.584;9.694;2023-01-05T08:20:42;15.63;;;2.90;;
77146;SDS011;66121;52.584;9.694;2023-01-05T08:23:07;7.93;;;3.15;;
77146;SDS011;66121;52.584;9.694;2023-01-05T08:25:32;15.75;;;3.97;;
77146;SDS011;66121;52.584;9.694;2023-01-05T08:27:58;13.98;;;4.18;;
77146;SDS011;66121;52.584;9.694;2023-01-05T08:30:23;13.60;;;3.97;;
77146;SDS011;66121;52.584;9.694;2023-01-05T08:32:49;13.23;;;3.90;;
77146;SDS011;66121;52.584;9.694;2023-01-05T08:35:14;14.70;;;4.33;;
77146;SDS011;66121;52.584;9.694;2023-01-05T08:37:39;11.73;;;3.83;;
77146;SDS011;66121;52.584;9.694;2023-01-05T08:40:08;13.20;;;3.90;;
77146;SDS011;66121;52.584;9.694;2023-01-05T08:42:34;17.13;;;4.20;;
77146;SDS011;66121;52.584;9.694;2023-01-05T08:44:59;9.00;;;4.00;;
77146;SDS011;66121;52.584;9.694;2023-01-05T08:47:24;19.20;;;3.90;;
77146;SDS011;66121;52.584;9.694;2023-01-05T08:49:49;12.50;;;3.55;;
77146;SDS011;66121;52.584;9.694;2023-01-05T08:52:15;13.50;;;3.73;;
77146;SDS011;66121;52.584;9.694;2023-01-05T08:54:40;23.37;;;4.97;;
77146;SDS011;66121;52.584;9.694;2023-01-05T08:57:05;9.82;;;3.38;;
77146;SDS011;66121;52.584;9.694;2023-01-05T08:59:31;9.60;;;2.73;;
77146;SDS011;66121;52.584;9.694;2023-01-05T09:01:56;19.90;;;4.63;;
77146;SDS011;66121;52.584;9.694;2023-01-05T09:04:23;13.38;;;3.92;;
77146;SDS011;66121;52.584;9.694;2023-01-05T09:06:48;12.95;;;3.78;;
77146;SDS011;66121;52.584;9.694;2023-01-05T09:09:13;13.77;;;3.50;;
77146;SDS011;66121;52.584;9.694;2023-01-05T09:11:39;15.35;;;3.78;;
77146;SDS011;66121;52.584;9.694;2023-01-05T09:14:04;8.88;;;3.40;;
77146;SDS011;66121;52.584;9.694;2023-01-05T09:16:31;11.73;;;3.60;;
77146;SDS011;66121;52.584;9.694;2023-01-05T09:18:59;22.65;;;5.35;;
77146;SDS011;66121;52.584;9.694;2023-01-05T09:21:26;13.48;;;3.78;;
77146;SDS011;66121;52.584;9.694;2023-01-05T09:23:52;10.88;;;3.13;;
77146;SDS011;66121;52.584;9.694;2023-01-05T09:26:17;9.70;;;3.00;;
77146;SDS011;66121;52.584;9.694;2023-01-05T09:28:43;11.30;;;4.15;;
77146;SDS011;66121;52.584;9.694;2023-01-05T09:33:39;3.03;;;1.40;;
77146;SDS011;66121;52.584;9.694;2023-01-05T09:36:05;3.28;;;1.02;;
77146;SDS011;66121;52.584;9.694;2023-01-05T09:38:31;1.85;;;1.17;;
77146;SDS011;66121;52.584;9.694;2023-01-05T09:41:01;1.00;;;0.60;;
77146;SDS011;66121;52.584;9.694;2023-01-05T09:43:33;2.88;;;1.13;;
77146;SDS011;66121;52.584;9.694;2023-01-05T09:46:02;5.95;;;1.30;;
77146;SDS011;66121;52.584;9.694;2023-01-05T09:48:32;3.72;;;1.38;;
77146;SDS011;66121;52.584;9.694;2023-01-05T09:51:03;4.97;;;1.95;;
77146;SDS011;66121;52.584;9.694;2023-01-05T09:53:28;3.65;;;1.10;;
77146;SDS011;66121;52.584;9.694;2023-01-05T09:55:54;5.70;;;1.88;;
77146;SDS011;66121;52.584;9.694;2023-01-05T09:58:22;3.80;;;2.13;;
77146;SDS011;66121;52.584;9.694;2023-01-05T10:01:04;2.75;;;2.28;;
77146;SDS011;66121;52.584;9.694;2023-01-05T10:03:38;3.33;;;1.77;;
77146;SDS011;66121;52.584;9.694;2023-01-05T10:06:12;7.75;;;1.90;;
77146;SDS011;66121;52.584;9.694;2023-01-05T10:08:40;5.10;;;1.80;;
77146;SDS011;66121;52.584;9.694;2023-01-05T10:11:17;6.80;;;2.15;;
77146;SDS011;66121;52.584;9.694;2023-01-05T10:14:09;6.65;;;2.13;;
77146;SDS011;66121;52.584;9.694;2023-01-05T10:16:40;5.80;;;2.67;;
77146;SDS011;66121;52.584;9.694;2023-01-05T10:19:14;5.32;;;2.95;;
77146;SDS011;66121;52.584;9.694;2023-01-05T10:21:58;8.18;;;2.35;;
77146;SDS011;66121;52.584;9.694;2023-01-05T10:24:53;6.65;;;2.50;;
77146;SDS011;66121;52.584;9.694;2023-01-05T10:30:21;5.10;;;2.10;;
77146;SDS011;66121;52.584;9.694;2023-01-05T10:38:03;3.97;;;1.58;;
77146;SDS011;66121;52.584;9.694;2023-01-05T10:40:56;7.75;;;2.13;;
77146;SDS011;66121;52.584;9.694;2023-01-05T10:44:05;4.80;;;1.65;;
77146;SDS011;66121;52.584;9.694;2023-01-05T10:46:46;6.78;;;2.67;;
77146;SDS011;66121;52.584;9.694;2023-01-05T10:49:20;9.95;;;2.42;;
77146;SDS011;66121;52.584;9.694;2023-01-05T10:51:50;5.63;;;1.80;;
77146;SDS011;66121;52.584;9.694;2023-01-05T10:54:21;8.40;;;3.63;;
77146;SDS011;66121;52.584;9.694;2023-01-05T11:02:49;8.77;;;3.72;;
77146;SDS011;66121;52.584;9.694;2023-01-05T11:08:00;5.90;;;2.20;;
77146;SDS011;66121;52.584;9.694;2023-01-05T11:10:33;7.03;;;2.60;;
77146;SDS011;66121;52.584;9.694;2023-01-05T11:13:05;6.28;;;2.60;;
77146;SDS011;66121;52.584;9.694;2023-01-05T11:15:41;7.43;;;3.28;;
77146;SDS011;66121;52.584;9.694;2023-01-05T11:18:23;10.45;;;4.65;;
77146;SDS011;66121;52.584;9.694;2023-01-05T11:21:11;6.47;;;2.35;;
77146;SDS011;66121;52.584;9.694;2023-01-05T11:23:42;6.15;;;2.13;;
77146;SDS011;66121;52.584;9.694;2023-01-05T11:28:56;7.50;;;3.10;;
77146;SDS011;66121;52.584;9.694;2023-01-05T11:34:00;5.73;;;2.80;;
77146;SDS011;66121;52.584;9.694;2023-01-05T11:36:32;7.15;;;2.08;;
77146;SDS011;66121;52.584;9.694;2023-01-05T11:38:57;3.72;;;1.65;;
77146;SDS011;66121;52.584;9.694;2023-01-05T11:41:23;6.22;;;2.00;;
77146;SDS011;66121;52.584;9.694;2023-01-05T11:43:49;8.60;;;1.85;;
77146;SDS011;66121;52.584;9.694;2023-01-05T11:46:16;4.32;;;1.70;;
77146;SDS011;66121;52.584;9.694;2023-01-05T11:49:00;3.35;;;1.80;;
77146;SDS011;66121;52.584;9.694;2023-01-05T11:51:36;5.03;;;2.00;;
77146;SDS011;66121;52.584;9.694;2023-01-05T11:54:03;6.53;;;2.15;;
77146;SDS011;66121;52.584;9.694;2023-01-05T11:56:30;5.78;;;1.90;;
77146;SDS011;66121;52.584;9.694;2023-01-05T11:58:56;5.65;;;2.70;;
77146;SDS011;66121;52.584;9.694;2023-01-05T12:07:07;7.75;;;1.73;;
77146;SDS011;66121;52.584;9.694;2023-01-05T12:09:54;3.95;;;1.60;;
77146;SDS011;66121;52.584;9.694;2023-01-05T12:12:42;2.70;;;1.70;;
77146;SDS011;66121;52.584;9.694;2023-01-05T12:26:34;5.35;;;1.52;;
77146;SDS011;66121;52.584;9.694;2023-01-05T12:29:14;1.58;;;1.20;;
77146;SDS011;66121;52.584;9.694;2023-01-05T12:31:50;7.10;;;1.27;;
77146;SDS011;66121;52.584;9.694;2023-01-05T12:40:32;1.88;;;1.30;;
77146;SDS011;66121;52.584;9.694;2023-01-05T12:43:22;3.03;;;1.17;;
77146;SDS011;66121;52.584;9.694;2023-01-05T12:46:12;3.17;;;1.13;;
77146;SDS011;66121;52.584;9.694;2023-01-05T12:48:43;3.47;;;1.30;;
77146;SDS011;66121;52.584;9.694;2023-01-05T12:51:17;6.00;;;1.42;;
77146;SDS011;66121;52.584;9.694;2023-01-05T12:53:54;5.28;;;1.35;;
77146;SDS011;66121;52.584;9.694;2023-01-05T12:59:48;4.47;;;1.40;;
77146;SDS011;66121;52.584;9.694;2023-01-05T13:07:22;2.92;;;1.25;;
77146;SDS011;66121;52.584;9.694;2023-01-05T13:10:04;3.15;;;1.35;;
77146;SDS011;66121;52.584;9.694;2023-01-05T13:12:36;4.32;;;1.83;;
77146;SDS011;66121;52.584;9.694;2023-01-05T13:15:06;2.50;;;1.23;;
77146;SDS011;66121;52.584;9.694;2023-01-05T13:17:37;5.90;;;1.40;;
77146;SDS011;66121;52.584;9.694;2023-01-05T13:23:21;5.53;;;1.50;;
77146;SDS011;66121;52.584;9.694;2023-01-05T13:25:54;3.95;;;1.25;;
77146;SDS011;66121;52.584;9.694;2023-01-05T13:28:24;3.47;;;1.77;;
77146;SDS011;66121;52.584;9.694;2023-01-05T13:42:35;1.85;;;1.10;;
77146;SDS011;66121;52.584;9.694;2023-01-05T13:45:13;1.55;;;1.02;;
77146;SDS011;66121;52.584;9.694;2023-01-05T13:54:04;3.83;;;1.10;;
77146;SDS011;66121;52.584;9.694;2023-01-05T13:56:36;1.80;;;1.20;;
77146;SDS011;66121;52.584;9.694;2023-01-05T13:59:04;3.10;;;1.20;;
77146;SDS011;66121;52.584;9.694;2023-01-05T14:01:53;5.40;;;1.63;;
77146;SDS011;66121;52.584;9.694;2023-01-05T14:04:24;5.75;;;1.50;;
77146;SDS011;66121;52.584;9.694;2023-01-05T14:09:48;2.38;;;1.58;;
77146;SDS011;66121;52.584;9.694;2023-01-05T14:26:00;9.15;;;2.20;;
77146;SDS011;66121;52.584;9.694;2023-01-05T14:31:30;9.07;;;2.40;;
77146;SDS011;66121;52.584;9.694;2023-01-05T14:34:01;7.65;;;2.40;;
77146;SDS011;66121;52.584;9.694;2023-01-05T14:36:38;5.95;;;2.20;;
77146;SDS011;66121;52.584;9.694;2023-01-05T14:41:58;6.13;;;3.15;;
77146;SDS011;66121;52.584;9.694;2023-01-05T14:44:49;6.88;;;3.15;;
77146;SDS011;66121;52.584;9.694;2023-01-05T14:47:15;8.13;;;3.28;;
77146;SDS011;66121;52.584;9.694;2023-01-05T14:49:50;6.57;;;2.72;;
77146;SDS011;66121;52.584;9.694;2023-01-05T14:52:18;6.93;;;2.53;;
77146;SDS011;66121;52.584;9.694;2023-01-05T14:55:24;7.50;;;2.47;;
77146;SDS011;66121;52.584;9.694;2023-01-05T14:57:53;9.85;;;3.13;;
77146;SDS011;66121;52.584;9.694;2023-01-05T15:11:49;7.82;;;2.50;;
77146;SDS011;66121;52.584;9.694;2023-01-05T15:14:26;5.72;;;2.50;;
77146;SDS011;66121;52.584;9.694;2023-01-05T15:25:44;15.52;;;7.35;;
77146;SDS011;66121;52.584;9.694;2023-01-05T15:33:40;14.45;;;8.75;;
77146;SDS011;66121;52.584;9.694;2023-01-05T15:36:15;7.63;;;5.35;;
77146;SDS011;66121;52.584;9.694;2023-01-05T15:38:47;8.93;;;4.72;;
77146;SDS011;66121;52.584;9.694;2023-01-05T15:41:13;9.63;;;3.67;;
77146;SDS011;66121;52.584;9.694;2023-01-05T15:43:43;5.93;;;4.88;;
77146;SDS011;66121;52.584;9.694;2023-01-05T15:46:09;7.28;;;3.13;;
77146;SDS011;66121;52.584;9.694;2023-01-05T15:48:44;5.35;;;3.40;;
77146;SDS011;66121;52.584;9.694;2023-01-05T15:51:24;6.72;;;3.70;;
77146;SDS011;66121;52.584;9.694;2023-01-05T15:53:56;6.30;;;3.50;;
77146;SDS011;66121;52.584;9.694;2023-01-05T15:56:25;5.70;;;3.20;;
77146;SDS011;66121;52.584;9.694;2023-01-05T15:58:54;7.65;;;3.83;;
77146;SDS011;66121;52.584;9.694;2023-01-05T16:01:19;5.72;;;2.90;;
77146;SDS011;66121;52.584;9.694;2023-01-05T16:03:45;7.00;;;2.50;;
77146;SDS011;66121;52.584;9.694;2023-01-05T16:08:49;4.35;;;2.63;;
77146;SDS011;66121;52.584;9.694;2023-01-05T16:11:26;4.65;;;2.42;;
77146;SDS011;66121;52.584;9.694;2023-01-05T16:16:31;3.50;;;2.13;;
77146;SDS011;66121;52.584;9.694;2023-01-05T16:19:45;8.32;;;2.75;;
77146;SDS011;66121;52.584;9.694;2023-01-05T16:24:59;7.10;;;2.38;;
77146;SDS011;66121;52.584;9.694;2023-01-05T16:27:26;7.13;;;2.80;;
77146;SDS011;66121;52.584;9.694;2023-01-05T16:29:52;13.18;;;3.38;;
77146;SDS011;66121;52.584;9.694;2023-01-05T16:32:31;8.43;;;3.47;;
77146;SDS011;66121;52.584;9.694;2023-01-05T16:38:05;10.55;;;3.90;;
77146;SDS011;66121;52.584;9.694;2023-01-05T16:43:21;11.45;;;6.68;;
77146;SDS011;66121;52.584;9.694;2023-01-05T16:45:52;8.82;;;4.10;;
77146;SDS011;66121;52.584;9.694;2023-01-05T16:48:44;11.90;;;5.80;;
77146;SDS011;66121;52.584;9.694;2023-01-05T16:51:22;10.10;;;5.15;;
77146;SDS011;66121;52.584;9.694;2023-01-05T17:02:50;14.30;;;8.63;;
77146;SDS011;66121;52.584;9.694;2023-01-05T17:04:59;14.55;;;8.45;;
77146;SDS011;66121;52.584;9.694;2023-01-05T17:07:24;8.80;;;5.00;;
77146;SDS011;66121;52.584;9.694;2023-01-05T17:09:50;9.73;;;5.28;;
77146;SDS011;66121;52.584;9.694;2023-01-05T17:12:16;10.93;;;6.63;;
77146;SDS011;66121;52.584;9.694;2023-01-05T17:14:43;7.70;;;3.15;;
77146;SDS011;66121;52.584;9.694;2023-01-05T17:17:12;10.77;;;3.10;;
77146;SDS011;66121;52.584;9.694;2023-01-05T17:19:38;15.23;;;3.80;;
77146;SDS011;66121;52.584;9.694;2023-01-05T17:22:04;7.43;;;3.15;;
77146;SDS011;66121;52.584;9.694;2023-01-05T17:24:30;8.23;;;3.85;;
77146;SDS011;66121;52.584;9.694;2023-01-05T17:26:55;11.02;;;4.63;;
77146;SDS011;66121;52.584;9.694;2023-01-05T17:29:22;9.97;;;3.20;;
77146;SDS011;66121;52.584;9.694;2023-01-05T17:31:49;5.82;;;3.40;;
77146;SDS011;66121;52.584;9.694;2023-01-05T17:34:15;9.10;;;3.47;;
77146;SDS011;66121;52.584;9.694;2023-01-05T17:36:41;6.38;;;2.97;;
77146;SDS011;66121;52.584;9.694;2023-01-05T17:39:07;9.40;;;3.28;;
77146;SDS011;66121;52.584;9.694;2023-01-05T17:41:32;8.45;;;3.55;;
77146;SDS011;66121;52.584;9.694;2023-01-05T17:43:58;9.15;;;3.92;;
77146;SDS011;66121;52.584;9.694;2023-01-05T17:46:24;7.35;;;3.60;;
77146;SDS011;66121;52.584;9.694;2023-01-05T17:48:55;7.70;;;2.90;;